Saranac Lake, New York
Current Conditions -  °F | °C
As of 7:51 PM on Saturday 22 Nov 2014 (Local Time) from KSLK Reporting Station
Overcast Overcast  
Wind Chill: 25°   Ceiling: 600
Heat Index: 35°   Visibility: 9mi
Dew Point: 32°   Wind: 16mph
Humidity: 89%   Direction: 220°SW
Pressure: 29.89"   Gusts: NA
Location:  44.32°N, 74.13°W
Report Text: KSLK 230051Z AUTO 22014KT 9SM OVC006 02/00 A2989 RMK AO2 SLP141 T00170000
Loading
Personal Weather Stations






























Interactive Weather Map New forecast layout! Learn more

10-Day Weather Forecast

Advertisements
Track Severe Weather on mobile